sensor_id;sensor_type;location;lat;lon;timestamp;temperature;humidity
9271;DHT22;4673;53.458;9.940;2024-02-28T00:01:50;3.90;33.40
9271;DHT22;4673;53.458;9.940;2024-02-28T00:04:16;3.90;33.60
9271;DHT22;4673;53.458;9.940;2024-02-28T00:06:42;3.90;33.00
9271;DHT22;4673;53.458;9.940;2024-02-28T00:09:07;3.80;33.00
9271;DHT22;4673;53.458;9.940;2024-02-28T00:11:33;3.70;32.90
9271;DHT22;4673;53.458;9.940;2024-02-28T00:13:59;3.70;33.40
9271;DHT22;4673;53.458;9.940;2024-02-28T00:16:28;3.60;33.60
9271;DHT22;4673;53.458;9.940;2024-02-28T00:18:53;3.70;34.00
9271;DHT22;4673;53.458;9.940;2024-02-28T00:21:19;3.70;33.80
9271;DHT22;4673;53.458;9.940;2024-02-28T00:23:44;3.70;34.10
9271;DHT22;4673;53.458;9.940;2024-02-28T00:26:12;3.80;33.70
9271;DHT22;4673;53.458;9.940;2024-02-28T00:28:37;3.80;34.00
9271;DHT22;4673;53.458;9.940;2024-02-28T00:31:03;3.70;33.80
9271;DHT22;4673;53.458;9.940;2024-02-28T00:33:29;3.80;33.90
9271;DHT22;4673;53.458;9.940;2024-02-28T00:35:54;3.80;34.10
9271;DHT22;4673;53.458;9.940;2024-02-28T00:38:20;3.80;34.20
9271;DHT22;4673;53.458;9.940;2024-02-28T00:40:46;3.80;33.80
9271;DHT22;4673;53.458;9.940;2024-02-28T00:43:11;3.70;33.30
9271;DHT22;4673;53.458;9.940;2024-02-28T00:45:37;3.60;33.60
9271;DHT22;4673;53.458;9.940;2024-02-28T00:48:03;3.50;33.70
9271;DHT22;4673;53.458;9.940;2024-02-28T00:50:29;3.50;34.20
9271;DHT22;4673;53.458;9.940;2024-02-28T00:52:55;3.40;34.60
9271;DHT22;4673;53.458;9.940;2024-02-28T00:55:20;3.50;35.30
9271;DHT22;4673;53.458;9.940;2024-02-28T00:57:46;3.40;35.20
9271;DHT22;4673;53.458;9.940;2024-02-28T01:00:12;3.60;35.40
9271;DHT22;4673;53.458;9.940;2024-02-28T01:02:37;3.60;35.30
9271;DHT22;4673;53.458;9.940;2024-02-28T01:05:03;3.80;35.50
9271;DHT22;4673;53.458;9.940;2024-02-28T01:07:29;3.60;34.80
9271;DHT22;4673;53.458;9.940;2024-02-28T01:09:54;3.60;35.10
9271;DHT22;4673;53.458;9.940;2024-02-28T01:12:20;3.60;35.30
9271;DHT22;4673;53.458;9.940;2024-02-28T01:14:46;3.70;35.40
9271;DHT22;4673;53.458;9.940;2024-02-28T01:17:11;3.70;35.40
9271;DHT22;4673;53.458;9.940;2024-02-28T01:19:37;3.70;34.90
9271;DHT22;4673;53.458;9.940;2024-02-28T01:22:03;3.70;34.80
9271;DHT22;4673;53.458;9.940;2024-02-28T01:24:28;3.70;34.80
9271;DHT22;4673;53.458;9.940;2024-02-28T01:26:54;3.70;35.10
9271;DHT22;4673;53.458;9.940;2024-02-28T01:29:19;3.90;35.10
9271;DHT22;4673;53.458;9.940;2024-02-28T01:31:45;3.80;34.90
9271;DHT22;4673;53.458;9.940;2024-02-28T01:34:11;3.80;34.90
9271;DHT22;4673;53.458;9.940;2024-02-28T01:36:36;3.70;34.10
9271;DHT22;4673;53.458;9.940;2024-02-28T01:39:02;3.70;34.40
9271;DHT22;4673;53.458;9.940;2024-02-28T01:41:28;3.60;34.20
9271;DHT22;4673;53.458;9.940;2024-02-28T01:43:54;3.60;34.40
9271;DHT22;4673;53.458;9.940;2024-02-28T01:46:25;3.80;34.60
9271;DHT22;4673;53.458;9.940;2024-02-28T01:48:55;3.60;34.90
9271;DHT22;4673;53.458;9.940;2024-02-28T01:51:24;3.50;34.40
9271;DHT22;4673;53.458;9.940;2024-02-28T01:53:52;3.60;34.60
9271;DHT22;4673;53.458;9.940;2024-02-28T01:56:19;3.60;34.70
9271;DHT22;4673;53.458;9.940;2024-02-28T01:58:46;3.60;34.70
9271;DHT22;4673;53.458;9.940;2024-02-28T02:01:13;3.60;35.10
9271;DHT22;4673;53.458;9.940;2024-02-28T02:03:40;3.60;34.80
9271;DHT22;4673;53.458;9.940;2024-02-28T02:06:05;3.60;35.10
9271;DHT22;4673;53.458;9.940;2024-02-28T02:08:33;3.50;35.00
9271;DHT22;4673;53.458;9.940;2024-02-28T02:10:59;3.40;35.10
9271;DHT22;4673;53.458;9.940;2024-02-28T02:13:25;3.30;35.20
9271;DHT22;4673;53.458;9.940;2024-02-28T02:15:50;3.30;34.90
9271;DHT22;4673;53.458;9.940;2024-02-28T02:18:16;3.30;35.30
9271;DHT22;4673;53.458;9.940;2024-02-28T02:20:46;3.30;35.40
9271;DHT22;4673;53.458;9.940;2024-02-28T02:23:12;3.30;35.50
9271;DHT22;4673;53.458;9.940;2024-02-28T02:25:48;3.30;35.80
9271;DHT22;4673;53.458;9.940;2024-02-28T02:28:14;3.30;35.50
9271;DHT22;4673;53.458;9.940;2024-02-28T02:30:40;3.30;35.80
9271;DHT22;4673;53.458;9.940;2024-02-28T02:33:07;3.40;35.90
9271;DHT22;4673;53.458;9.940;2024-02-28T02:35:35;3.30;35.30
9271;DHT22;4673;53.458;9.940;2024-02-28T02:38:01;3.40;35.10
9271;DHT22;4673;53.458;9.940;2024-02-28T02:40:27;3.30;35.00
9271;DHT22;4673;53.458;9.940;2024-02-28T02:42:53;3.30;35.30
9271;DHT22;4673;53.458;9.940;2024-02-28T02:45:18;3.30;35.50
9271;DHT22;4673;53.458;9.940;2024-02-28T02:47:44;3.30;35.10
9271;DHT22;4673;53.458;9.940;2024-02-28T02:50:10;3.30;35.70
9271;DHT22;4673;53.458;9.940;2024-02-28T02:52:36;3.30;36.10
9271;DHT22;4673;53.458;9.940;2024-02-28T02:55:02;3.40;36.10
9271;DHT22;4673;53.458;9.940;2024-02-28T02:57:28;3.50;36.20
9271;DHT22;4673;53.458;9.940;2024-02-28T02:59:56;3.60;36.10
9271;DHT22;4673;53.458;9.940;2024-02-28T03:02:21;3.50;35.80
9271;DHT22;4673;53.458;9.940;2024-02-28T03:04:47;3.70;35.90
9271;DHT22;4673;53.458;9.940;2024-02-28T03:07:13;3.50;35.50
9271;DHT22;4673;53.458;9.940;2024-02-28T03:09:38;3.60;35.50
9271;DHT22;4673;53.458;9.940;2024-02-28T03:12:04;3.40;34.90
9271;DHT22;4673;53.458;9.940;2024-02-28T03:14:29;3.40;35.30
9271;DHT22;4673;53.458;9.940;2024-02-28T03:16:55;3.10;35.50
9271;DHT22;4673;53.458;9.940;2024-02-28T03:19:21;3.20;35.00
9271;DHT22;4673;53.458;9.940;2024-02-28T03:21:47;3.20;35.50
9271;DHT22;4673;53.458;9.940;2024-02-28T03:24:13;3.20;35.30
9271;DHT22;4673;53.458;9.940;2024-02-28T03:26:38;3.30;35.70
9271;DHT22;4673;53.458;9.940;2024-02-28T03:29:04;3.30;35.60
9271;DHT22;4673;53.458;9.940;2024-02-28T03:31:29;3.30;35.70
9271;DHT22;4673;53.458;9.940;2024-02-28T03:33:55;3.40;35.50
9271;DHT22;4673;53.458;9.940;2024-02-28T03:36:21;3.40;35.50
9271;DHT22;4673;53.458;9.940;2024-02-28T03:38:46;3.40;35.50
9271;DHT22;4673;53.458;9.940;2024-02-28T03:41:12;3.50;35.60
9271;DHT22;4673;53.458;9.940;2024-02-28T03:43:38;3.60;35.70
9271;DHT22;4673;53.458;9.940;2024-02-28T03:46:03;3.60;35.50
9271;DHT22;4673;53.458;9.940;2024-02-28T03:48:29;3.80;35.20
9271;DHT22;4673;53.458;9.940;2024-02-28T03:50:55;3.70;35.30
9271;DHT22;4673;53.458;9.940;2024-02-28T03:53:20;3.70;34.70
9271;DHT22;4673;53.458;9.940;2024-02-28T03:55:46;3.70;34.90
9271;DHT22;4673;53.458;9.940;2024-02-28T03:58:12;3.80;34.80
9271;DHT22;4673;53.458;9.940;2024-02-28T04:00:38;3.80;34.80
9271;DHT22;4673;53.458;9.940;2024-02-28T04:03:05;3.70;34.80
9271;DHT22;4673;53.458;9.940;2024-02-28T04:05:30;3.70;34.70
9271;DHT22;4673;53.458;9.940;2024-02-28T04:07:56;3.80;34.60
9271;DHT22;4673;53.458;9.940;2024-02-28T04:10:22;3.70;34.60
9271;DHT22;4673;53.458;9.940;2024-02-28T04:12:47;3.80;34.70
9271;DHT22;4673;53.458;9.940;2024-02-28T04:15:14;3.80;34.70
9271;DHT22;4673;53.458;9.940;2024-02-28T04:17:40;3.80;34.80
9271;DHT22;4673;53.458;9.940;2024-02-28T04:20:12;3.80;34.50
9271;DHT22;4673;53.458;9.940;2024-02-28T04:22:38;3.80;34.60
9271;DHT22;4673;53.458;9.940;2024-02-28T04:25:05;3.70;34.60
9271;DHT22;4673;53.458;9.940;2024-02-28T04:27:31;3.70;34.80
9271;DHT22;4673;53.458;9.940;2024-02-28T04:29:56;3.80;35.10
9271;DHT22;4673;53.458;9.940;2024-02-28T04:32:22;3.70;35.10
9271;DHT22;4673;53.458;9.940;2024-02-28T04:34:48;3.70;35.10
9271;DHT22;4673;53.458;9.940;2024-02-28T04:37:13;3.70;35.10
9271;DHT22;4673;53.458;9.940;2024-02-28T04:39:40;3.70;35.40
9271;DHT22;4673;53.458;9.940;2024-02-28T04:42:05;3.60;35.00
9271;DHT22;4673;53.458;9.940;2024-02-28T04:44:31;3.50;35.30
9271;DHT22;4673;53.458;9.940;2024-02-28T04:46:57;3.50;35.90
9271;DHT22;4673;53.458;9.940;2024-02-28T04:49:22;3.50;36.20
9271;DHT22;4673;53.458;9.940;2024-02-28T04:51:48;3.40;36.10
9271;DHT22;4673;53.458;9.940;2024-02-28T04:54:14;3.40;36.40
9271;DHT22;4673;53.458;9.940;2024-02-28T04:56:43;3.30;36.60
9271;DHT22;4673;53.458;9.940;2024-02-28T04:59:10;3.30;37.20
9271;DHT22;4673;53.458;9.940;2024-02-28T05:01:36;3.30;37.40
9271;DHT22;4673;53.458;9.940;2024-02-28T05:04:07;3.30;37.70
9271;DHT22;4673;53.458;9.940;2024-02-28T05:06:33;3.40;37.70
9271;DHT22;4673;53.458;9.940;2024-02-28T05:08:59;3.40;37.80
9271;DHT22;4673;53.458;9.940;2024-02-28T05:11:25;3.40;37.90
9271;DHT22;4673;53.458;9.940;2024-02-28T05:13:50;3.30;37.80
9271;DHT22;4673;53.458;9.940;2024-02-28T05:16:16;3.30;37.90
9271;DHT22;4673;53.458;9.940;2024-02-28T05:18:44;3.20;38.00
9271;DHT22;4673;53.458;9.940;2024-02-28T05:21:10;3.30;38.40
9271;DHT22;4673;53.458;9.940;2024-02-28T05:23:36;3.30;38.50
9271;DHT22;4673;53.458;9.940;2024-02-28T05:26:02;3.40;38.50
9271;DHT22;4673;53.458;9.940;2024-02-28T05:28:29;3.30;38.20
9271;DHT22;4673;53.458;9.940;2024-02-28T05:30:56;3.30;38.30
9271;DHT22;4673;53.458;9.940;2024-02-28T05:33:22;3.20;38.30
9271;DHT22;4673;53.458;9.940;2024-02-28T05:35:47;3.10;38.20
9271;DHT22;4673;53.458;9.940;2024-02-28T05:38:13;3.10;38.70
9271;DHT22;4673;53.458;9.940;2024-02-28T05:40:41;3.10;38.70
9271;DHT22;4673;53.458;9.940;2024-02-28T05:43:06;3.00;38.40
9271;DHT22;4673;53.458;9.940;2024-02-28T05:45:32;2.90;38.90
9271;DHT22;4673;53.458;9.940;2024-02-28T05:47:57;2.80;39.30
9271;DHT22;4673;53.458;9.940;2024-02-28T05:50:23;2.80;39.70
9271;DHT22;4673;53.458;9.940;2024-02-28T05:52:50;2.70;39.90
9271;DHT22;4673;53.458;9.940;2024-02-28T05:55:16;2.70;40.30
9271;DHT22;4673;53.458;9.940;2024-02-28T05:57:41;2.70;40.80
9271;DHT22;4673;53.458;9.940;2024-02-28T06:00:07;2.70;41.00
9271;DHT22;4673;53.458;9.940;2024-02-28T06:02:36;2.70;41.50
9271;DHT22;4673;53.458;9.940;2024-02-28T06:05:02;2.80;41.70
9271;DHT22;4673;53.458;9.940;2024-02-28T06:07:28;2.90;42.00
9271;DHT22;4673;53.458;9.940;2024-02-28T06:09:54;2.90;41.70
9271;DHT22;4673;53.458;9.940;2024-02-28T06:12:19;3.00;41.60
9271;DHT22;4673;53.458;9.940;2024-02-28T06:14:45;3.00;41.40
9271;DHT22;4673;53.458;9.940;2024-02-28T06:17:10;3.00;41.20
9271;DHT22;4673;53.458;9.940;2024-02-28T06:19:36;2.90;41.00
9271;DHT22;4673;53.458;9.940;2024-02-28T06:22:02;3.00;41.30
9271;DHT22;4673;53.458;9.940;2024-02-28T06:24:27;3.00;41.10
9271;DHT22;4673;53.458;9.940;2024-02-28T06:26:53;3.00;41.50
9271;DHT22;4673;53.458;9.940;2024-02-28T06:29:19;3.10;41.50
9271;DHT22;4673;53.458;9.940;2024-02-28T06:31:50;3.00;41.30
9271;DHT22;4673;53.458;9.940;2024-02-28T06:34:16;3.00;41.40
9271;DHT22;4673;53.458;9.940;2024-02-28T06:36:41;3.00;41.50
9271;DHT22;4673;53.458;9.940;2024-02-28T06:39:07;3.10;41.80
9271;DHT22;4673;53.458;9.940;2024-02-28T06:41:32;3.20;41.60
9271;DHT22;4673;53.458;9.940;2024-02-28T06:43:59;3.20;41.70
9271;DHT22;4673;53.458;9.940;2024-02-28T06:46:24;3.30;41.60
9271;DHT22;4673;53.458;9.940;2024-02-28T06:48:50;3.40;41.20
9271;DHT22;4673;53.458;9.940;2024-02-28T06:51:16;3.40;41.00
9271;DHT22;4673;53.458;9.940;2024-02-28T06:53:43;3.40;40.90
9271;DHT22;4673;53.458;9.940;2024-02-28T06:56:08;3.40;41.10
9271;DHT22;4673;53.458;9.940;2024-02-28T06:58:34;3.40;40.90
9271;DHT22;4673;53.458;9.940;2024-02-28T07:01:00;3.50;41.10
9271;DHT22;4673;53.458;9.940;2024-02-28T07:03:25;3.50;40.70
9271;DHT22;4673;53.458;9.940;2024-02-28T07:05:51;3.50;40.70
9271;DHT22;4673;53.458;9.940;2024-02-28T07:08:18;3.50;40.60
9271;DHT22;4673;53.458;9.940;2024-02-28T07:10:44;3.60;40.60
9271;DHT22;4673;53.458;9.940;2024-02-28T07:13:13;3.60;40.60
9271;DHT22;4673;53.458;9.940;2024-02-28T07:15:38;3.50;40.50
9271;DHT22;4673;53.458;9.940;2024-02-28T07:18:05;3.50;40.50
9271;DHT22;4673;53.458;9.940;2024-02-28T07:20:31;3.40;40.40
9271;DHT22;4673;53.458;9.940;2024-02-28T07:22:56;3.50;41.00
9271;DHT22;4673;53.458;9.940;2024-02-28T07:25:22;3.50;40.50
9271;DHT22;4673;53.458;9.940;2024-02-28T07:27:48;3.50;40.70
9271;DHT22;4673;53.458;9.940;2024-02-28T07:30:13;3.60;40.70
9271;DHT22;4673;53.458;9.940;2024-02-28T07:32:39;3.60;40.70
9271;DHT22;4673;53.458;9.940;2024-02-28T07:35:05;3.60;40.60
9271;DHT22;4673;53.458;9.940;2024-02-28T07:37:31;3.70;41.50
9271;DHT22;4673;53.458;9.940;2024-02-28T07:39:56;3.90;41.20
9271;DHT22;4673;53.458;9.940;2024-02-28T07:42:22;3.80;40.20
9271;DHT22;4673;53.458;9.940;2024-02-28T07:44:47;3.90;40.90
9271;DHT22;4673;53.458;9.940;2024-02-28T07:47:14;4.00;41.10
9271;DHT22;4673;53.458;9.940;2024-02-28T07:49:40;4.20;40.70
9271;DHT22;4673;53.458;9.940;2024-02-28T07:52:06;4.30;39.80
9271;DHT22;4673;53.458;9.940;2024-02-28T07:54:31;4.40;39.10
9271;DHT22;4673;53.458;9.940;2024-02-28T07:56:57;4.60;39.20
9271;DHT22;4673;53.458;9.940;2024-02-28T07:59:22;4.70;38.80
9271;DHT22;4673;53.458;9.940;2024-02-28T08:01:48;4.80;38.40
9271;DHT22;4673;53.458;9.940;2024-02-28T08:04:14;4.90;37.20
9271;DHT22;4673;53.458;9.940;2024-02-28T08:06:40;4.70;36.60
9271;DHT22;4673;53.458;9.940;2024-02-28T08:09:06;4.80;37.50
9271;DHT22;4673;53.458;9.940;2024-02-28T08:11:32;5.00;37.80
9271;DHT22;4673;53.458;9.940;2024-02-28T08:13:58;5.10;37.50
9271;DHT22;4673;53.458;9.940;2024-02-28T08:16:24;5.10;36.20
9271;DHT22;4673;53.458;9.940;2024-02-28T08:18:49;5.20;36.00
9271;DHT22;4673;53.458;9.940;2024-02-28T08:21:15;5.30;35.90
9271;DHT22;4673;53.458;9.940;2024-02-28T08:23:40;5.20;35.60
9271;DHT22;4673;53.458;9.940;2024-02-28T08:26:06;5.20;35.30
9271;DHT22;4673;53.458;9.940;2024-02-28T08:28:32;5.00;35.40
9271;DHT22;4673;53.458;9.940;2024-02-28T08:30:58;4.80;36.70
9271;DHT22;4673;53.458;9.940;2024-02-28T08:33:24;4.90;37.10
9271;DHT22;4673;53.458;9.940;2024-02-28T08:35:49;5.00;37.30
9271;DHT22;4673;53.458;9.940;2024-02-28T08:38:16;5.10;37.30
9271;DHT22;4673;53.458;9.940;2024-02-28T08:40:42;5.20;36.80
9271;DHT22;4673;53.458;9.940;2024-02-28T08:43:08;5.30;36.30
9271;DHT22;4673;53.458;9.940;2024-02-28T08:45:34;5.40;36.80
9271;DHT22;4673;53.458;9.940;2024-02-28T08:48:00;5.60;36.50
9271;DHT22;4673;53.458;9.940;2024-02-28T08:50:27;5.60;36.20
9271;DHT22;4673;53.458;9.940;2024-02-28T08:52:53;5.60;35.70
9271;DHT22;4673;53.458;9.940;2024-02-28T08:55:19;5.60;35.20
9271;DHT22;4673;53.458;9.940;2024-02-28T08:57:47;5.60;35.60
9271;DHT22;4673;53.458;9.940;2024-02-28T09:00:13;5.70;35.30
9271;DHT22;4673;53.458;9.940;2024-02-28T09:02:38;5.80;35.10
9271;DHT22;4673;53.458;9.940;2024-02-28T09:05:05;5.80;35.10
9271;DHT22;4673;53.458;9.940;2024-02-28T09:07:30;5.80;34.30
9271;DHT22;4673;53.458;9.940;2024-02-28T09:09:56;6.00;34.70
9271;DHT22;4673;53.458;9.940;2024-02-28T09:12:22;6.10;34.30
9271;DHT22;4673;53.458;9.940;2024-02-28T09:14:47;6.30;34.10
9271;DHT22;4673;53.458;9.940;2024-02-28T09:17:20;6.40;33.20
9271;DHT22;4673;53.458;9.940;2024-02-28T09:19:45;6.60;33.00
9271;DHT22;4673;53.458;9.940;2024-02-28T09:22:11;6.80;33.20
9271;DHT22;4673;53.458;9.940;2024-02-28T09:24:37;7.10;32.70
9271;DHT22;4673;53.458;9.940;2024-02-28T09:27:03;7.30;30.90
9271;DHT22;4673;53.458;9.940;2024-02-28T09:29:28;7.40;29.40
9271;DHT22;4673;53.458;9.940;2024-02-28T09:31:54;7.20;28.20
9271;DHT22;4673;53.458;9.940;2024-02-28T09:34:20;7.20;28.70
9271;DHT22;4673;53.458;9.940;2024-02-28T09:36:46;7.20;27.40
9271;DHT22;4673;53.458;9.940;2024-02-28T09:39:12;7.00;27.40
9271;DHT22;4673;53.458;9.940;2024-02-28T09:41:38;6.90;27.90
9271;DHT22;4673;53.458;9.940;2024-02-28T09:44:06;6.90;27.80
9271;DHT22;4673;53.458;9.940;2024-02-28T09:46:33;6.70;27.50
9271;DHT22;4673;53.458;9.940;2024-02-28T09:49:05;6.60;28.10
9271;DHT22;4673;53.458;9.940;2024-02-28T09:51:34;6.60;28.60
9271;DHT22;4673;53.458;9.940;2024-02-28T09:54:02;6.60;29.30
9271;DHT22;4673;53.458;9.940;2024-02-28T09:56:29;6.70;29.70
9271;DHT22;4673;53.458;9.940;2024-02-28T09:58:55;6.90;30.00
9271;DHT22;4673;53.458;9.940;2024-02-28T10:01:22;7.30;29.60
9271;DHT22;4673;53.458;9.940;2024-02-28T10:03:51;7.50;28.00
9271;DHT22;4673;53.458;9.940;2024-02-28T10:06:20;7.80;27.10
9271;DHT22;4673;53.458;9.940;2024-02-28T10:08:46;7.90;26.50
9271;DHT22;4673;53.458;9.940;2024-02-28T10:11:21;8.20;26.10
9271;DHT22;4673;53.458;9.940;2024-02-28T10:13:48;8.40;25.20
9271;DHT22;4673;53.458;9.940;2024-02-28T10:16:14;8.50;23.00
9271;DHT22;4673;53.458;9.940;2024-02-28T10:18:45;8.40;22.70
9271;DHT22;4673;53.458;9.940;2024-02-28T10:21:11;8.30;23.00
9271;DHT22;4673;53.458;9.940;2024-02-28T10:23:41;8.30;23.10
9271;DHT22;4673;53.458;9.940;2024-02-28T10:26:11;8.30;23.00
9271;DHT22;4673;53.458;9.940;2024-02-28T10:28:40;8.30;22.80
9271;DHT22;4673;53.458;9.940;2024-02-28T10:31:09;8.20;22.60
9271;DHT22;4673;53.458;9.940;2024-02-28T10:33:35;8.10;23.10
9271;DHT22;4673;53.458;9.940;2024-02-28T10:36:03;8.10;23.30
9271;DHT22;4673;53.458;9.940;2024-02-28T10:38:30;8.00;23.80
9271;DHT22;4673;53.458;9.940;2024-02-28T10:41:01;7.90;24.40
9271;DHT22;4673;53.458;9.940;2024-02-28T10:43:30;7.80;24.00
9271;DHT22;4673;53.458;9.940;2024-02-28T10:45:57;7.80;24.60
9271;DHT22;4673;53.458;9.940;2024-02-28T10:48:26;7.80;25.70
9271;DHT22;4673;53.458;9.940;2024-02-28T10:50:52;7.80;25.20
9271;DHT22;4673;53.458;9.940;2024-02-28T10:53:24;8.00;24.80
9271;DHT22;4673;53.458;9.940;2024-02-28T10:55:51;8.20;25.20
9271;DHT22;4673;53.458;9.940;2024-02-28T10:58:22;8.60;24.00
9271;DHT22;4673;53.458;9.940;2024-02-28T11:00:50;8.80;23.00
9271;DHT22;4673;53.458;9.940;2024-02-28T11:03:17;8.90;22.00
9271;DHT22;4673;53.458;9.940;2024-02-28T11:05:44;8.80;21.10
9271;DHT22;4673;53.458;9.940;2024-02-28T11:08:22;8.80;22.20
9271;DHT22;4673;53.458;9.940;2024-02-28T11:10:58;9.00;22.30
9271;DHT22;4673;53.458;9.940;2024-02-28T11:13:25;9.00;21.70
9271;DHT22;4673;53.458;9.940;2024-02-28T11:15:52;9.00;22.10
9271;DHT22;4673;53.458;9.940;2024-02-28T11:18:18;8.90;21.80
9271;DHT22;4673;53.458;9.940;2024-02-28T11:20:44;9.00;22.20
9271;DHT22;4673;53.458;9.940;2024-02-28T11:23:13;9.20;21.80
9271;DHT22;4673;53.458;9.940;2024-02-28T11:25:40;9.40;21.50
9271;DHT22;4673;53.458;9.940;2024-02-28T11:28:06;9.80;20.30
9271;DHT22;4673;53.458;9.940;2024-02-28T11:30:33;10.00;18.50
9271;DHT22;4673;53.458;9.940;2024-02-28T11:32:58;9.90;18.00
9271;DHT22;4673;53.458;9.940;2024-02-28T11:35:27;9.80;17.50
9271;DHT22;4673;53.458;9.940;2024-02-28T11:37:55;9.40;17.20
9271;DHT22;4673;53.458;9.940;2024-02-28T11:40:23;9.20;17.70
9271;DHT22;4673;53.458;9.940;2024-02-28T11:42:51;9.30;18.70
9271;DHT22;4673;53.458;9.940;2024-02-28T11:45:17;9.30;18.40
9271;DHT22;4673;53.458;9.940;2024-02-28T11:47:44;9.30;18.70
9271;DHT22;4673;53.458;9.940;2024-02-28T11:50:09;9.10;18.30
9271;DHT22;4673;53.458;9.940;2024-02-28T11:52:35;9.10;19.50
9271;DHT22;4673;53.458;9.940;2024-02-28T11:55:01;9.30;19.90
9271;DHT22;4673;53.458;9.940;2024-02-28T11:57:26;9.20;19.00
9271;DHT22;4673;53.458;9.940;2024-02-28T11:59:54;9.40;18.70
9271;DHT22;4673;53.458;9.940;2024-02-28T12:02:23;9.50;18.30
9271;DHT22;4673;53.458;9.940;2024-02-28T12:04:52;9.30;18.50
9271;DHT22;4673;53.458;9.940;2024-02-28T12:07:19;8.80;19.00
9271;DHT22;4673;53.458;9.940;2024-02-28T12:09:46;8.70;20.10
9271;DHT22;4673;53.458;9.940;2024-02-28T12:12:13;8.70;20.90
9271;DHT22;4673;53.458;9.940;2024-02-28T12:14:39;8.80;21.10
9271;DHT22;4673;53.458;9.940;2024-02-28T12:17:05;8.70;21.10
9271;DHT22;4673;53.458;9.940;2024-02-28T12:19:31;8.80;21.00
9271;DHT22;4673;53.458;9.940;2024-02-28T12:21:57;8.90;21.40
9271;DHT22;4673;53.458;9.940;2024-02-28T12:24:24;9.00;21.40
9271;DHT22;4673;53.458;9.940;2024-02-28T12:26:49;9.00;21.30
9271;DHT22;4673;53.458;9.940;2024-02-28T12:29:15;9.20;21.40
9271;DHT22;4673;53.458;9.940;2024-02-28T12:31:41;9.40;20.80
9271;DHT22;4673;53.458;9.940;2024-02-28T12:34:06;9.50;20.60
9271;DHT22;4673;53.458;9.940;2024-02-28T12:36:32;9.60;18.80
9271;DHT22;4673;53.458;9.940;2024-02-28T12:38:58;9.70;19.90
9271;DHT22;4673;53.458;9.940;2024-02-28T12:41:28;9.80;19.40
9271;DHT22;4673;53.458;9.940;2024-02-28T12:43:54;9.90;18.20
9271;DHT22;4673;53.458;9.940;2024-02-28T12:46:20;9.90;18.70
9271;DHT22;4673;53.458;9.940;2024-02-28T12:48:45;9.80;18.80
9271;DHT22;4673;53.458;9.940;2024-02-28T12:51:42;9.70;18.80
9271;DHT22;4673;53.458;9.940;2024-02-28T12:54:08;9.80;18.90
9271;DHT22;4673;53.458;9.940;2024-02-28T12:56:35;9.70;19.10
9271;DHT22;4673;53.458;9.940;2024-02-28T12:59:02;9.50;19.90
9271;DHT22;4673;53.458;9.940;2024-02-28T13:01:28;9.50;19.70
9271;DHT22;4673;53.458;9.940;2024-02-28T13:03:54;9.50;19.80
9271;DHT22;4673;53.458;9.940;2024-02-28T13:06:20;9.60;20.20
9271;DHT22;4673;53.458;9.940;2024-02-28T13:08:46;9.60;19.20
9271;DHT22;4673;53.458;9.940;2024-02-28T13:11:17;9.60;20.10
9271;DHT22;4673;53.458;9.940;2024-02-28T13:13:44;9.80;19.50
9271;DHT22;4673;53.458;9.940;2024-02-28T13:16:09;9.80;19.00
9271;DHT22;4673;53.458;9.940;2024-02-28T13:18:35;9.80;18.80
9271;DHT22;4673;53.458;9.940;2024-02-28T13:21:01;9.70;19.40
9271;DHT22;4673;53.458;9.940;2024-02-28T13:23:26;9.70;19.90
9271;DHT22;4673;53.458;9.940;2024-02-28T13:25:52;9.70;20.00
9271;DHT22;4673;53.458;9.940;2024-02-28T13:28:18;9.70;20.10
9271;DHT22;4673;53.458;9.940;2024-02-28T13:30:43;9.70;20.50
9271;DHT22;4673;53.458;9.940;2024-02-28T13:33:09;9.70;20.50
9271;DHT22;4673;53.458;9.940;2024-02-28T13:35:35;9.70;20.50
9271;DHT22;4673;53.458;9.940;2024-02-28T13:38:03;9.50;20.50
9271;DHT22;4673;53.458;9.940;2024-02-28T13:40:29;9.40;20.50
9271;DHT22;4673;53.458;9.940;2024-02-28T13:42:54;9.30;21.50
9271;DHT22;4673;53.458;9.940;2024-02-28T13:45:20;9.40;21.40
9271;DHT22;4673;53.458;9.940;2024-02-28T13:47:46;9.50;21.60
9271;DHT22;4673;53.458;9.940;2024-02-28T13:50:13;9.60;21.20
9271;DHT22;4673;53.458;9.940;2024-02-28T13:52:39;9.40;20.80
9271;DHT22;4673;53.458;9.940;2024-02-28T13:55:07;9.00;21.70
9271;DHT22;4673;53.458;9.940;2024-02-28T13:57:33;8.80;22.30
9271;DHT22;4673;53.458;9.940;2024-02-28T13:59:59;8.80;23.10
9271;DHT22;4673;53.458;9.940;2024-02-28T14:02:25;8.80;23.20
9271;DHT22;4673;53.458;9.940;2024-02-28T14:04:53;8.90;23.40
9271;DHT22;4673;53.458;9.940;2024-02-28T14:07:19;8.80;23.50
9271;DHT22;4673;53.458;9.940;2024-02-28T14:09:44;8.80;24.30
9271;DHT22;4673;53.458;9.940;2024-02-28T14:12:11;8.70;24.50
9271;DHT22;4673;53.458;9.940;2024-02-28T14:14:37;8.60;25.50
9271;DHT22;4673;53.458;9.940;2024-02-28T14:17:05;8.40;25.90
9271;DHT22;4673;53.458;9.940;2024-02-28T14:19:30;8.20;26.60
9271;DHT22;4673;53.458;9.940;2024-02-28T14:21:56;8.10;27.30
9271;DHT22;4673;53.458;9.940;2024-02-28T14:24:22;8.20;28.30
9271;DHT22;4673;53.458;9.940;2024-02-28T14:26:48;8.00;28.60
9271;DHT22;4673;53.458;9.940;2024-02-28T14:29:14;8.10;28.80
9271;DHT22;4673;53.458;9.940;2024-02-28T14:31:40;8.10;28.90
9271;DHT22;4673;53.458;9.940;2024-02-28T14:34:07;8.10;29.60
9271;DHT22;4673;53.458;9.940;2024-02-28T14:36:33;8.20;29.60
9271;DHT22;4673;53.458;9.940;2024-02-28T14:38:58;8.20;29.00
9271;DHT22;4673;53.458;9.940;2024-02-28T14:41:24;8.20;29.20
9271;DHT22;4673;53.458;9.940;2024-02-28T14:43:50;8.20;29.50
9271;DHT22;4673;53.458;9.940;2024-02-28T14:46:16;8.10;29.00
9271;DHT22;4673;53.458;9.940;2024-02-28T14:48:47;8.00;30.10
9271;DHT22;4673;53.458;9.940;2024-02-28T14:51:18;8.00;30.30
9271;DHT22;4673;53.458;9.940;2024-02-28T14:53:45;8.10;30.80
9271;DHT22;4673;53.458;9.940;2024-02-28T14:56:11;8.00;30.80
9271;DHT22;4673;53.458;9.940;2024-02-28T14:58:37;8.10;30.90
9271;DHT22;4673;53.458;9.940;2024-02-28T15:01:04;8.00;30.40
9271;DHT22;4673;53.458;9.940;2024-02-28T15:03:30;7.90;31.10
9271;DHT22;4673;53.458;9.940;2024-02-28T15:05:56;7.90;31.90
9271;DHT22;4673;53.458;9.940;2024-02-28T15:08:21;7.90;31.80
9271;DHT22;4673;53.458;9.940;2024-02-28T15:10:47;8.00;31.60
9271;DHT22;4673;53.458;9.940;2024-02-28T15:13:14;8.10;31.70
9271;DHT22;4673;53.458;9.940;2024-02-28T15:15:39;8.20;31.90
9271;DHT22;4673;53.458;9.940;2024-02-28T15:18:05;8.20;31.80
9271;DHT22;4673;53.458;9.940;2024-02-28T15:20:32;8.20;31.60
9271;DHT22;4673;53.458;9.940;2024-02-28T15:22:57;8.30;31.60
9271;DHT22;4673;53.458;9.940;2024-02-28T15:25:24;8.00;30.90
9271;DHT22;4673;53.458;9.940;2024-02-28T15:27:50;7.80;32.20
9271;DHT22;4673;53.458;9.940;2024-02-28T15:30:16;7.70;33.10
9271;DHT22;4673;53.458;9.940;2024-02-28T15:32:41;7.60;33.30
9271;DHT22;4673;53.458;9.940;2024-02-28T15:35:08;7.50;34.30
9271;DHT22;4673;53.458;9.940;2024-02-28T15:37:33;7.60;35.20
9271;DHT22;4673;53.458;9.940;2024-02-28T15:40:01;7.60;35.10
9271;DHT22;4673;53.458;9.940;2024-02-28T15:42:30;7.50;35.20
9271;DHT22;4673;53.458;9.940;2024-02-28T15:44:56;7.50;35.80
9271;DHT22;4673;53.458;9.940;2024-02-28T15:47:22;7.50;36.00
9271;DHT22;4673;53.458;9.940;2024-02-28T15:49:48;7.40;36.10
9271;DHT22;4673;53.458;9.940;2024-02-28T15:52:13;7.40;36.80
9271;DHT22;4673;53.458;9.940;2024-02-28T15:54:39;7.30;36.80
9271;DHT22;4673;53.458;9.940;2024-02-28T15:57:05;7.20;37.30
9271;DHT22;4673;53.458;9.940;2024-02-28T15:59:30;7.20;37.60
9271;DHT22;4673;53.458;9.940;2024-02-28T16:01:56;7.20;37.70
9271;DHT22;4673;53.458;9.940;2024-02-28T16:04:23;7.30;37.90
9271;DHT22;4673;53.458;9.940;2024-02-28T16:06:49;7.10;38.00
9271;DHT22;4673;53.458;9.940;2024-02-28T16:09:15;7.00;38.60
9271;DHT22;4673;53.458;9.940;2024-02-28T16:11:42;7.10;38.90